createdAt,value
2024-01-05T00:00:09.183Z,35.66
2024-01-05T00:00:39.257Z,35.66
2024-01-05T00:01:09.415Z,35.68
2024-01-05T00:01:39.291Z,35.71
2024-01-05T00:02:39.376Z,35.70
2024-01-05T00:03:09.550Z,35.73
2024-01-05T00:03:39.621Z,35.72
2024-01-05T00:04:09.714Z,35.69
2024-01-05T00:04:39.729Z,35.73
2024-01-05T00:05:09.713Z,35.70
2024-01-05T00:05:39.869Z,35.70
2024-01-05T00:06:09.950Z,35.70
2024-01-05T00:06:40.089Z,35.70
2024-01-05T00:07:09.956Z,35.71
2024-01-05T00:07:39.964Z,35.64
2024-01-05T00:08:09.972Z,35.71
2024-01-05T00:08:40.078Z,35.63
2024-01-05T00:09:10.118Z,35.70
2024-01-05T00:09:40.174Z,35.70
2024-01-05T00:10:10.159Z,35.70
2024-01-05T00:11:10.156Z,35.67
2024-01-05T00:11:40.133Z,35.68
2024-01-05T00:12:40.368Z,35.67
2024-01-05T00:13:10.284Z,35.70
2024-01-05T00:13:40.282Z,35.67
2024-01-05T00:14:10.402Z,35.70
2024-01-05T00:14:40.396Z,35.71
2024-01-05T00:15:10.583Z,35.67
2024-01-05T00:15:40.733Z,35.71
2024-01-05T00:16:10.644Z,35.71
2024-01-05T00:16:40.955Z,35.68
2024-01-05T00:17:10.793Z,35.67
2024-01-05T00:17:40.911Z,35.68
2024-01-05T00:18:10.969Z,35.67
2024-01-05T00:18:41.116Z,35.70
2024-01-05T00:19:11.170Z,35.70
2024-01-05T00:19:41.149Z,35.68
2024-01-05T00:20:11.168Z,35.70
2024-01-05T00:20:41.160Z,35.67
2024-01-05T00:21:11.283Z,35.67
2024-01-05T00:21:41.275Z,35.67
2024-01-05T00:22:11.410Z,35.66
2024-01-05T00:22:41.387Z,35.71
2024-01-05T00:23:41.502Z,35.62
2024-01-05T00:24:11.565Z,35.66
2024-01-05T00:24:41.683Z,35.70
2024-01-05T00:25:11.704Z,35.68
2024-01-05T00:25:41.671Z,35.68
2024-01-05T00:26:42.130Z,35.66
2024-01-05T00:27:11.902Z,35.71
2024-01-05T00:27:41.881Z,35.66
2024-01-05T00:28:11.888Z,35.67
2024-01-05T00:29:11.995Z,35.68
2024-01-05T00:29:41.961Z,35.70
2024-01-05T00:30:42.184Z,35.66
2024-01-05T00:31:12.279Z,35.65
2024-01-05T00:31:42.220Z,35.65
2024-01-05T00:32:13.186Z,35.71
2024-01-05T00:32:42.354Z,35.68
2024-01-05T00:33:12.334Z,35.70
2024-01-05T00:33:42.428Z,35.71
2024-01-05T00:34:12.360Z,35.64
2024-01-05T00:34:42.445Z,35.70
2024-01-05T00:35:12.375Z,35.67
2024-01-05T00:35:42.373Z,35.65
2024-01-05T00:36:42.739Z,35.62
2024-01-05T00:37:12.558Z,35.70
2024-01-05T00:37:42.674Z,35.70
2024-01-05T00:38:12.666Z,35.68
2024-01-05T00:38:42.792Z,35.64
2024-01-05T00:39:12.817Z,35.68
2024-01-05T00:39:42.824Z,35.70
2024-01-05T00:40:12.904Z,35.67
2024-01-05T00:40:43.011Z,35.70
2024-01-05T00:41:13.071Z,35.67
2024-01-05T00:41:43.150Z,35.70
2024-01-05T00:42:13.285Z,35.68
2024-01-05T00:42:43.349Z,35.68
2024-01-05T00:43:13.443Z,35.66
2024-01-05T00:43:43.540Z,35.70
2024-01-05T00:44:13.620Z,35.71
2024-01-05T00:44:43.706Z,35.71
2024-01-05T00:45:13.818Z,35.65
2024-01-05T00:45:43.911Z,35.67
2024-01-05T00:46:13.886Z,35.68
2024-01-05T00:46:44.432Z,35.67
2024-01-05T00:47:14.083Z,35.69
2024-01-05T00:47:44.201Z,35.72
2024-01-05T00:48:14.436Z,35.69
2024-01-05T00:48:44.577Z,35.65
2024-01-05T00:49:14.509Z,35.69
2024-01-05T00:49:44.550Z,35.68
2024-01-05T00:50:14.427Z,35.70
2024-01-05T00:50:44.542Z,35.69
2024-01-05T00:51:14.622Z,35.67
2024-01-05T00:51:44.635Z,35.71
2024-01-05T00:52:14.642Z,35.70
2024-01-05T00:52:44.644Z,35.68
2024-01-05T00:53:14.645Z,35.68
2024-01-05T00:54:14.874Z,35.71
2024-01-05T00:54:44.733Z,35.69
2024-01-05T00:55:14.743Z,35.65
2024-01-05T00:55:44.762Z,35.73
2024-01-05T00:56:14.784Z,35.68
2024-01-05T00:56:45.103Z,35.71
2024-01-05T00:57:15.015Z,35.73
2024-01-05T00:57:44.906Z,35.69
2024-01-05T00:58:45.024Z,35.70
2024-01-05T00:59:15.023Z,35.68
2024-01-05T00:59:45.141Z,35.68
2024-01-05T01:00:15.212Z,35.72
2024-01-05T01:00:45.369Z,35.69
2024-01-05T01:01:15.341Z,35.66
2024-01-05T01:01:45.392Z,35.71
2024-01-05T01:02:15.388Z,35.71
2024-01-05T01:02:45.524Z,35.71
2024-01-05T01:03:15.459Z,35.69
2024-01-05T01:03:45.569Z,35.69
2024-01-05T01:04:15.873Z,35.65
2024-01-05T01:04:45.711Z,35.70
2024-01-05T01:05:15.751Z,35.73
2024-01-05T01:05:45.770Z,35.69
2024-01-05T01:06:15.796Z,35.69
2024-01-05T01:06:46.180Z,35.69
2024-01-05T01:07:15.865Z,35.70
2024-01-05T01:07:45.983Z,35.63
2024-01-05T01:08:15.996Z,35.71
2024-01-05T01:09:16.063Z,35.68
2024-01-05T01:09:46.063Z,35.70
2024-01-05T01:10:16.185Z,35.72
2024-01-05T01:10:46.231Z,35.68
2024-01-05T01:11:16.277Z,35.70
2024-01-05T01:11:46.276Z,35.69
2024-01-05T01:12:46.321Z,35.69
2024-01-05T01:13:16.336Z,35.69
2024-01-05T01:14:16.402Z,35.70
2024-01-05T01:14:46.518Z,35.66
2024-01-05T01:15:16.579Z,35.69
2024-01-05T01:15:46.623Z,35.66
2024-01-05T01:16:16.654Z,35.69
2024-01-05T01:16:46.630Z,35.73
2024-01-05T01:17:47.037Z,35.71
2024-01-05T01:18:16.842Z,35.68
2024-01-05T01:18:46.875Z,35.70
2024-01-05T01:19:16.916Z,35.69
2024-01-05T01:19:46.907Z,35.71
2024-01-05T01:20:16.900Z,35.71
2024-01-05T01:20:46.922Z,35.63
2024-01-05T01:21:16.949Z,35.69
2024-01-05T01:21:46.971Z,35.72
2024-01-05T01:22:16.963Z,35.68
2024-01-05T01:23:17.044Z,35.66
2024-01-05T01:23:47.160Z,35.74
2024-01-05T01:24:17.214Z,35.69
2024-01-05T01:24:47.237Z,35.73
2024-01-05T01:25:17.292Z,35.71
2024-01-05T01:25:47.310Z,35.71
2024-01-05T01:26:17.411Z,35.70
2024-01-05T01:26:47.395Z,35.69
2024-01-05T01:27:17.577Z,35.68
2024-01-05T01:27:47.578Z,35.73
2024-01-05T01:28:17.701Z,35.71
2024-01-05T01:28:47.701Z,35.71
2024-01-05T01:29:17.811Z,35.70
2024-01-05T01:29:47.826Z,35.70
2024-01-05T01:30:18.010Z,35.74
2024-01-05T01:30:48.000Z,35.68
2024-01-05T01:31:18.031Z,35.74
2024-01-05T01:31:48.011Z,35.69
2024-01-05T01:32:18.124Z,35.73
2024-01-05T01:32:48.137Z,35.71
2024-01-05T01:33:18.204Z,35.68
2024-01-05T01:34:18.314Z,35.73
2024-01-05T01:34:48.317Z,35.73
2024-01-05T01:35:18.288Z,35.71
2024-01-05T01:35:48.405Z,35.68
2024-01-05T01:36:18.639Z,35.66
2024-01-05T01:36:48.517Z,35.70
2024-01-05T01:37:18.652Z,35.70
2024-01-05T01:37:48.757Z,35.70
2024-01-05T01:38:18.754Z,35.73
2024-01-05T01:38:49.035Z,35.71
2024-01-05T01:39:19.007Z,35.72
2024-01-05T01:39:49.014Z,35.67
2024-01-05T01:40:19.089Z,35.68
2024-01-05T01:40:49.170Z,35.76
2024-01-05T01:41:19.277Z,35.71
2024-01-05T01:41:49.319Z,35.71
2024-01-05T01:42:19.343Z,35.73
2024-01-05T01:42:49.525Z,35.68
2024-01-05T01:43:19.461Z,35.74
2024-01-05T01:43:53.089Z,35.70
2024-01-05T01:44:19.485Z,35.72
2024-01-05T01:44:49.590Z,35.75
2024-01-05T01:45:19.732Z,35.71
2024-01-05T01:45:49.796Z,35.71
2024-01-05T01:46:19.858Z,35.70
2024-01-05T01:46:49.941Z,35.70
2024-01-05T01:47:20.021Z,35.74
2024-01-05T01:47:50.427Z,35.71
2024-01-05T01:48:20.272Z,35.70
2024-01-05T01:48:50.447Z,35.67
2024-01-05T01:49:20.304Z,35.73
2024-01-05T01:49:50.397Z,35.67
2024-01-05T01:50:20.306Z,35.70
2024-01-05T01:50:50.423Z,35.71
2024-01-05T01:51:20.412Z,35.75
2024-01-05T01:51:50.411Z,35.70
2024-01-05T01:52:20.541Z,35.72
2024-01-05T01:52:50.657Z,35.67
2024-01-05T01:53:20.655Z,35.68
2024-01-05T01:53:50.685Z,35.72
2024-01-05T01:54:20.762Z,35.68
2024-01-05T01:54:50.790Z,35.72
2024-01-05T01:55:20.921Z,35.73
2024-01-05T01:55:50.902Z,35.70
2024-01-05T01:56:21.028Z,35.70
2024-01-05T01:56:51.173Z,35.70
2024-01-05T01:57:21.234Z,35.70
2024-01-05T01:57:51.290Z,35.68
2024-01-05T01:58:21.302Z,35.71
2024-01-05T01:59:21.374Z,35.67
2024-01-05T01:59:51.410Z,35.64
2024-01-05T02:00:21.427Z,35.74
2024-01-05T02:00:51.500Z,35.74
2024-01-05T02:01:21.554Z,35.68
2024-01-05T02:01:51.552Z,35.71
2024-01-05T02:02:21.700Z,35.71
2024-01-05T02:02:51.905Z,35.68
2024-01-05T02:03:21.906Z,35.67
2024-01-05T02:03:51.975Z,35.68
2024-01-05T02:04:22.139Z,35.71
2024-01-05T02:04:52.139Z,35.72
2024-01-05T02:05:22.265Z,35.70
2024-01-05T02:05:52.297Z,35.70
2024-01-05T02:06:22.325Z,35.71
2024-01-05T02:06:52.314Z,35.68
2024-01-05T02:07:22.320Z,35.69
2024-01-05T02:08:22.399Z,35.70
2024-01-05T02:08:52.623Z,35.68
2024-01-05T02:09:22.546Z,35.74
2024-01-05T02:09:52.549Z,35.72
2024-01-05T02:10:22.668Z,35.69
2024-01-05T02:10:52.676Z,35.75
2024-01-05T02:11:22.683Z,35.73
2024-01-05T02:11:52.750Z,35.71
2024-01-05T02:12:22.783Z,35.71
2024-01-05T02:12:52.829Z,35.69
2024-01-05T02:13:22.846Z,35.72
2024-01-05T02:13:52.852Z,35.71
2024-01-05T02:14:22.950Z,35.72
2024-01-05T02:14:52.971Z,35.71
2024-01-05T02:15:22.989Z,35.68
2024-01-05T02:15:53.019Z,35.71
2024-01-05T02:16:23.055Z,35.73
2024-01-05T02:16:53.084Z,35.73
2024-01-05T02:17:23.065Z,35.75
2024-01-05T02:17:53.288Z,35.69
2024-01-05T02:18:23.353Z,35.75
2024-01-05T02:18:53.435Z,35.72
2024-01-05T02:19:23.478Z,35.73
2024-01-05T02:19:53.481Z,35.76
2024-01-05T02:20:23.417Z,35.73
2024-01-05T02:20:53.448Z,35.72
2024-01-05T02:21:23.461Z,35.73
2024-01-05T02:21:53.458Z,35.75
2024-01-05T02:22:53.513Z,35.75
2024-01-05T02:23:23.530Z,35.72
2024-01-05T02:23:53.677Z,35.68
2024-01-05T02:24:23.676Z,35.75
2024-01-05T02:24:53.674Z,35.76
2024-01-05T02:25:23.811Z,35.71
2024-01-05T02:25:53.806Z,35.71
2024-01-05T02:26:23.868Z,35.71
2024-01-05T02:26:53.971Z,35.72
2024-01-05T02:27:23.977Z,35.72
2024-01-05T02:27:53.990Z,35.75
2024-01-05T02:28:23.982Z,35.75
2024-01-05T02:29:24.118Z,35.75
2024-01-05T02:29:54.121Z,35.72
2024-01-05T02:30:24.227Z,35.67
2024-01-05T02:30:54.224Z,35.73
2024-01-05T02:31:24.296Z,35.71
2024-01-05T02:31:54.322Z,35.70
2024-01-05T02:32:24.302Z,35.72
2024-01-05T02:32:54.505Z,35.68
2024-01-05T02:33:24.852Z,35.68
2024-01-05T02:33:54.755Z,35.73
2024-01-05T02:34:24.833Z,35.73
2024-01-05T02:34:54.816Z,35.72
2024-01-05T02:35:24.720Z,35.75
2024-01-05T02:35:54.753Z,35.70
2024-01-05T02:36:24.780Z,35.73
2024-01-05T02:36:54.834Z,35.69
2024-01-05T02:37:24.816Z,35.72
2024-01-05T02:37:54.944Z,35.70
2024-01-05T02:38:25.047Z,35.73
2024-01-05T02:38:55.065Z,35.68
2024-01-05T02:39:25.103Z,35.66
2024-01-05T02:39:55.115Z,35.69
2024-01-05T02:40:25.209Z,35.73
2024-01-05T02:40:55.280Z,35.68
2024-01-05T02:41:25.368Z,35.72
2024-01-05T02:41:55.481Z,35.69
2024-01-05T02:42:25.638Z,35.69
2024-01-05T02:42:55.597Z,35.73
2024-01-05T02:43:25.681Z,35.73
2024-01-05T02:43:55.758Z,35.68
2024-01-05T02:44:25.870Z,35.72
2024-01-05T02:44:55.964Z,35.69
2024-01-05T02:45:26.065Z,35.73
2024-01-05T02:45:56.033Z,35.73
2024-01-05T02:46:26.116Z,35.69
2024-01-05T02:46:56.197Z,35.70
2024-01-05T02:47:26.295Z,35.71
2024-01-05T02:47:56.521Z,35.66
2024-01-05T02:48:26.530Z,35.73
2024-01-05T02:48:56.552Z,35.74
2024-01-05T02:49:26.620Z,35.69
2024-01-05T02:49:56.639Z,35.70
2024-01-05T02:50:26.658Z,35.70
2024-01-05T02:50:56.655Z,35.70
2024-01-05T02:51:26.694Z,35.73
2024-01-05T02:51:56.699Z,35.73
2024-01-05T02:52:26.811Z,35.70
2024-01-05T02:52:56.926Z,35.69
2024-01-05T02:53:27.075Z,35.70
2024-01-05T02:53:57.068Z,35.68
2024-01-05T02:54:57.136Z,35.76
2024-01-05T02:55:27.124Z,35.68
2024-01-05T02:56:27.196Z,35.71
2024-01-05T02:56:57.263Z,35.68
2024-01-05T02:57:27.260Z,35.73
2024-01-05T02:57:57.254Z,35.69
2024-01-05T02:58:27.427Z,35.77
2024-01-05T02:58:57.458Z,35.66
2024-01-05T02:59:27.541Z,35.69
2024-01-05T02:59:57.613Z,35.71
2024-01-05T03:00:27.613Z,35.66
2024-01-05T03:00:57.701Z,35.76
2024-01-05T03:01:27.735Z,35.67
2024-01-05T03:01:57.727Z,35.70
2024-01-05T03:02:27.843Z,35.69
2024-01-05T03:02:58.246Z,35.68
2024-01-05T03:03:28.097Z,35.70
2024-01-05T03:04:28.074Z,35.74
2024-01-05T03:04:58.098Z,35.70
2024-01-05T03:05:28.127Z,35.77
2024-01-05T03:05:58.128Z,35.70
2024-01-05T03:06:28.151Z,35.74
2024-01-05T03:06:58.127Z,35.70
2024-01-05T03:07:28.259Z,35.71
2024-01-05T03:07:58.264Z,35.74
2024-01-05T03:08:28.267Z,35.70
2024-01-05T03:08:58.401Z,35.71
2024-01-05T03:09:28.423Z,35.73
2024-01-05T03:09:58.425Z,35.71
2024-01-05T03:10:28.590Z,35.72
2024-01-05T03:10:58.608Z,35.71
2024-01-05T03:11:28.730Z,35.74
2024-01-05T03:11:58.757Z,35.73
2024-01-05T03:12:28.777Z,35.68
2024-01-05T03:12:58.755Z,35.70
2024-01-05T03:13:58.820Z,35.67
2024-01-05T03:14:28.824Z,35.70
2024-01-05T03:14:59.009Z,35.71
2024-01-05T03:15:29.043Z,35.72
2024-01-05T03:15:59.052Z,35.76
2024-01-05T03:16:29.075Z,35.74
2024-01-05T03:16:59.075Z,35.73
2024-01-05T03:17:29.078Z,35.73
2024-01-05T03:17:59.176Z,35.70
2024-01-05T03:18:29.340Z,35.74
2024-01-05T03:18:59.311Z,35.72
2024-01-05T03:19:29.423Z,35.71
2024-01-05T03:19:59.456Z,35.72
2024-01-05T03:20:29.492Z,35.74
2024-01-05T03:20:59.501Z,35.71
2024-01-05T03:21:29.650Z,35.72
2024-01-05T03:21:59.689Z,35.74
2024-01-05T03:22:32.144Z,35.74
2024-01-05T03:22:59.706Z,35.74
2024-01-05T03:23:29.703Z,35.73
2024-01-05T03:24:29.946Z,35.71
2024-01-05T03:24:59.838Z,35.71
2024-01-05T03:25:29.835Z,35.75
2024-01-05T03:25:59.851Z,35.74
2024-01-05T03:26:29.875Z,35.74
2024-01-05T03:26:59.924Z,35.73
2024-01-05T03:27:29.986Z,35.73
2024-01-05T03:28:00.048Z,35.71
2024-01-05T03:28:30.022Z,35.75
2024-01-05T03:29:30.101Z,35.73
2024-01-05T03:30:00.382Z,35.71
2024-01-05T03:30:30.369Z,35.71
2024-01-05T03:31:00.497Z,35.77
2024-01-05T03:31:30.448Z,35.74
2024-01-05T03:32:00.471Z,35.77
2024-01-05T03:32:30.583Z,35.75
2024-01-05T03:33:00.708Z,35.75
2024-01-05T03:33:30.660Z,35.75
2024-01-05T03:34:00.859Z,35.77
2024-01-05T03:34:30.649Z,35.71
2024-01-05T03:35:00.636Z,35.72
2024-01-05T03:35:30.653Z,35.72
2024-01-05T03:36:30.749Z,35.71
2024-01-05T03:37:00.744Z,35.74
2024-01-05T03:37:30.736Z,35.71
2024-01-05T03:38:30.842Z,35.72
2024-01-05T03:39:01.009Z,35.75
2024-01-05T03:39:31.060Z,35.72
2024-01-05T03:40:01.047Z,35.80
2024-01-05T03:40:31.129Z,35.73
2024-01-05T03:41:01.223Z,35.73
2024-01-05T03:41:31.290Z,35.72
2024-01-05T03:42:01.411Z,35.76
2024-01-05T03:42:31.458Z,35.72
2024-01-05T03:43:01.463Z,35.79
2024-01-05T03:43:31.563Z,35.75
2024-01-05T03:44:01.650Z,35.75
2024-01-05T03:44:31.751Z,35.73
2024-01-05T03:45:01.924Z,35.78
2024-01-05T03:45:31.945Z,35.72
2024-01-05T03:46:02.016Z,35.76
2024-01-05T03:46:32.119Z,35.73
2024-01-05T03:47:02.205Z,35.72
2024-01-05T03:47:32.318Z,35.72
2024-01-05T03:48:02.476Z,35.73
2024-01-05T03:48:32.422Z,35.75
2024-01-05T03:49:02.601Z,35.76
2024-01-05T03:49:32.569Z,35.76
2024-01-05T03:50:02.511Z,35.77
2024-01-05T03:50:32.528Z,35.79
2024-01-05T03:51:02.687Z,35.80
2024-01-05T03:51:32.734Z,35.82
2024-01-05T03:52:02.750Z,35.75
2024-01-05T03:52:32.875Z,35.73
2024-01-05T03:53:02.990Z,35.77
2024-01-05T03:53:32.990Z,35.71
2024-01-05T03:54:03.390Z,35.71
2024-01-05T03:54:33.180Z,35.74
2024-01-05T03:55:33.240Z,35.71
2024-01-05T03:56:03.360Z,35.87
2024-01-05T03:56:33.371Z,35.84
2024-01-05T03:57:33.551Z,35.83
2024-01-05T03:58:03.422Z,35.86
2024-01-05T03:59:03.540Z,35.78
2024-01-05T03:59:33.542Z,35.73
2024-01-05T04:00:03.705Z,35.73
2024-01-05T04:00:33.763Z,35.59
2024-01-05T04:01:03.802Z,35.68
2024-01-05T04:01:33.845Z,35.71
2024-01-05T04:02:03.821Z,35.62
2024-01-05T04:03:04.040Z,35.66
2024-01-05T04:03:34.098Z,35.62
2024-01-05T04:04:04.065Z,35.57
2024-01-05T04:04:34.253Z,35.59
2024-01-05T04:05:04.121Z,35.49
2024-01-05T04:05:34.112Z,35.55
2024-01-05T04:06:04.160Z,35.47
2024-01-05T04:06:34.267Z,35.50
2024-01-05T04:07:04.315Z,35.44
2024-01-05T04:07:34.298Z,35.49
2024-01-05T04:08:04.330Z,35.44
2024-01-05T04:08:34.338Z,35.40
2024-01-05T04:09:04.364Z,35.35
2024-01-05T04:09:34.416Z,35.37
2024-01-05T04:10:04.447Z,35.36
2024-01-05T04:10:34.428Z,35.30
2024-01-05T04:11:04.445Z,35.36
2024-01-05T04:12:04.542Z,35.10
2024-01-05T04:12:34.781Z,35.20
2024-01-05T04:13:04.683Z,35.27
2024-01-05T04:13:34.684Z,35.15
2024-01-05T04:14:04.684Z,35.04
2024-01-05T04:14:34.806Z,35.19
2024-01-05T04:15:04.820Z,35.09
2024-01-05T04:15:36.561Z,35.17
2024-01-05T04:16:04.915Z,35.23
2024-01-05T04:16:35.032Z,35.15
2024-01-05T04:17:05.059Z,35.07
2024-01-05T04:17:35.094Z,35.08
2024-01-05T04:18:05.285Z,35.07
2024-01-05T04:18:35.257Z,35.04
2024-01-05T04:19:05.284Z,35.02
2024-01-05T04:19:35.309Z,34.97
2024-01-05T04:20:05.182Z,34.98
2024-01-05T04:20:35.318Z,34.92
2024-01-05T04:21:05.352Z,34.90
2024-01-05T04:21:35.479Z,34.98
2024-01-05T04:22:05.429Z,35.00
2024-01-05T04:22:35.440Z,34.95
2024-01-05T04:23:05.434Z,34.90
2024-01-05T04:24:05.514Z,34.91
2024-01-05T04:24:35.647Z,34.93
2024-01-05T04:25:05.643Z,34.90
2024-01-05T04:25:35.656Z,34.86
2024-01-05T04:26:05.748Z,34.85
2024-01-05T04:26:35.747Z,34.84
2024-01-05T04:27:05.767Z,34.93
2024-01-05T04:27:35.815Z,34.96
2024-01-05T04:28:05.772Z,34.86
2024-01-05T04:28:35.758Z,34.96
2024-01-05T04:29:05.875Z,34.90
2024-01-05T04:29:36.024Z,34.97
2024-01-05T04:30:06.043Z,34.89
2024-01-05T04:30:36.170Z,34.85
2024-01-05T04:31:06.258Z,34.85
2024-01-05T04:31:36.250Z,34.89
2024-01-05T04:32:06.242Z,34.89
2024-01-05T04:32:36.487Z,34.95
2024-01-05T04:33:06.564Z,34.95
2024-01-05T04:33:36.596Z,34.85
2024-01-05T04:34:06.632Z,35.05
2024-01-05T04:34:36.795Z,34.92
2024-01-05T04:35:06.668Z,34.94
2024-01-05T04:35:36.768Z,34.76
2024-01-05T04:36:06.900Z,34.79
2024-01-05T04:36:36.975Z,34.74
2024-01-05T04:37:06.912Z,34.81
2024-01-05T04:37:36.893Z,34.78
2024-01-05T04:38:06.890Z,34.83
2024-01-05T04:39:06.999Z,34.80
2024-01-05T04:39:37.065Z,34.87
2024-01-05T04:40:07.117Z,34.91
2024-01-05T04:40:37.065Z,35.05
2024-01-05T04:41:07.168Z,34.92
2024-01-05T04:41:37.242Z,34.98
2024-01-05T04:42:07.344Z,34.91
2024-01-05T04:42:37.463Z,34.95
2024-01-05T04:43:07.427Z,34.95
2024-01-05T04:43:37.502Z,34.95
2024-01-05T04:44:07.587Z,34.87
2024-01-05T04:44:37.666Z,34.95
2024-01-05T04:45:07.786Z,34.93
2024-01-05T04:45:37.780Z,34.92
2024-01-05T04:46:07.764Z,34.95
2024-01-05T04:46:37.844Z,34.91
2024-01-05T04:47:07.934Z,35.01
2024-01-05T04:47:38.105Z,34.98
2024-01-05T04:48:08.155Z,34.90
2024-01-05T04:48:38.263Z,34.87
2024-01-05T04:49:08.291Z,34.94
2024-01-05T04:49:38.317Z,34.95
2024-01-05T04:50:08.348Z,34.87
2024-01-05T04:50:38.333Z,34.86
2024-01-05T04:51:08.528Z,34.90
2024-01-05T04:51:40.781Z,34.94
2024-01-05T04:52:08.667Z,35.00
2024-01-05T04:52:38.657Z,34.94
2024-01-05T04:53:08.789Z,34.83
2024-01-05T04:53:38.777Z,34.98
2024-01-05T04:54:08.928Z,34.90
2024-01-05T04:54:39.167Z,34.95
2024-01-05T04:55:09.036Z,34.84
2024-01-05T04:56:09.145Z,34.89
2024-01-05T04:56:39.133Z,34.91
2024-01-05T04:57:09.267Z,34.92
2024-01-05T04:57:39.281Z,34.97
2024-01-05T04:58:09.287Z,34.91
2024-01-05T04:58:39.279Z,34.87
2024-01-05T04:59:39.363Z,34.81
2024-01-05T05:00:09.386Z,34.90
2024-01-05T05:00:39.490Z,34.90
2024-01-05T05:01:09.502Z,34.75
2024-01-05T05:01:39.528Z,34.86
2024-01-05T05:02:09.511Z,34.87
2024-01-05T05:02:39.662Z,34.87
2024-01-05T05:03:09.739Z,34.83
2024-01-05T05:03:39.854Z,34.83
2024-01-05T05:04:09.854Z,34.77
2024-01-05T05:04:39.808Z,34.97
2024-01-05T05:05:09.888Z,34.91
2024-01-05T05:05:39.917Z,34.94
2024-01-05T05:06:09.860Z,34.83
2024-01-05T05:06:40.073Z,34.90
2024-01-05T05:07:09.976Z,34.80
2024-01-05T05:07:39.970Z,34.87
2024-01-05T05:08:10.094Z,34.90
2024-01-05T05:08:40.090Z,34.88
2024-01-05T05:09:10.130Z,34.90
2024-01-05T05:09:40.191Z,34.95
2024-01-05T05:10:10.161Z,34.92
2024-01-05T05:10:40.154Z,34.86
2024-01-05T05:11:10.176Z,34.83
2024-01-05T05:11:40.208Z,34.81
2024-01-05T05:12:10.207Z,34.83
2024-01-05T05:12:40.249Z,34.80
2024-01-05T05:13:10.259Z,34.87
2024-01-05T05:13:40.275Z,34.86
2024-01-05T05:14:10.267Z,34.76
2024-01-05T05:15:10.369Z,34.79
2024-01-05T05:15:40.406Z,34.78
2024-01-05T05:16:10.400Z,34.80
2024-01-05T05:16:40.392Z,34.77
2024-01-05T05:17:40.585Z,34.75
2024-01-05T05:18:10.840Z,34.76
2024-01-05T05:18:40.591Z,34.75
2024-01-05T05:19:10.777Z,34.69
2024-01-05T05:19:40.781Z,34.75
2024-01-05T05:20:10.755Z,34.74
2024-01-05T05:20:40.879Z,34.74
2024-01-05T05:21:10.882Z,34.70
2024-01-05T05:21:41.037Z,34.74
2024-01-05T05:22:10.961Z,34.71
2024-01-05T05:22:40.966Z,34.75
2024-01-05T05:23:10.980Z,34.75
2024-01-05T05:23:40.984Z,34.68
2024-01-05T05:24:11.006Z,34.70
2024-01-05T05:24:41.054Z,34.66
2024-01-05T05:25:11.096Z,34.68
2024-01-05T05:25:41.201Z,34.75
2024-01-05T05:26:11.319Z,34.72
2024-01-05T05:26:41.306Z,34.71
2024-01-05T05:27:41.514Z,34.73
2024-01-05T05:28:11.429Z,34.71
2024-01-05T05:28:41.550Z,34.71
2024-01-05T05:29:11.543Z,34.72
2024-01-05T05:30:11.760Z,34.62
2024-01-05T05:30:41.852Z,34.63
2024-01-05T05:31:11.875Z,34.58
2024-01-05T05:31:42.167Z,34.61
2024-01-05T05:32:12.036Z,34.59
2024-01-05T05:32:41.957Z,34.62
2024-01-05T05:33:42.106Z,34.58
2024-01-05T05:34:12.187Z,34.57
2024-01-05T05:34:42.238Z,34.57
2024-01-05T05:35:12.131Z,34.53
2024-01-05T05:35:42.226Z,34.48
2024-01-05T05:36:12.326Z,34.51
2024-01-05T05:36:42.392Z,34.54
2024-01-05T05:37:12.368Z,34.52
2024-01-05T05:37:42.380Z,34.50
2024-01-05T05:38:12.369Z,34.48
2024-01-05T05:38:42.494Z,34.48
2024-01-05T05:39:12.635Z,34.46
2024-01-05T05:39:42.650Z,34.45
2024-01-05T05:40:12.773Z,34.39
2024-01-05T05:40:42.857Z,34.47
2024-01-05T05:41:12.919Z,34.41
2024-01-05T05:41:43.297Z,34.41
2024-01-05T05:42:51.967Z,34.41
2024-01-05T05:43:22.109Z,34.37
2024-01-05T05:43:52.072Z,34.37
2024-01-05T05:44:22.159Z,34.33
2024-01-05T05:44:52.341Z,34.29
2024-01-05T05:45:22.359Z,34.33
2024-01-05T05:45:52.328Z,34.28
2024-01-05T05:46:22.410Z,34.24
2024-01-05T05:46:52.480Z,34.20
2024-01-05T05:47:22.592Z,34.26
2024-01-05T05:47:52.757Z,34.22
2024-01-05T05:48:22.906Z,34.17
2024-01-05T05:48:52.889Z,34.19
2024-01-05T05:49:22.975Z,34.18
2024-01-05T05:49:53.095Z,34.19
2024-01-05T05:50:22.959Z,34.14
2024-01-05T05:50:53.098Z,34.16
2024-01-05T05:51:23.046Z,34.11
2024-01-05T05:51:53.125Z,34.10
2024-01-05T05:52:23.196Z,34.07
2024-01-05T05:52:53.210Z,33.99
2024-01-05T05:53:53.310Z,34.02
2024-01-05T05:54:23.341Z,34.01
2024-01-05T05:54:53.366Z,34.03
2024-01-05T05:55:23.376Z,33.98
2024-01-05T05:55:53.401Z,33.98
2024-01-05T05:56:23.403Z,33.98
2024-01-05T05:56:53.447Z,33.97
2024-01-05T05:57:23.614Z,33.98
2024-01-05T05:57:53.480Z,33.92
2024-01-05T05:58:23.473Z,33.91
2024-01-05T05:59:23.560Z,33.91
2024-01-05T05:59:53.576Z,33.88
2024-01-05T06:00:23.617Z,33.89
2024-01-05T06:00:53.791Z,33.90
2024-01-05T06:01:23.722Z,33.88
2024-01-05T06:01:53.712Z,33.85
2024-01-05T06:02:23.865Z,33.86
2024-01-05T06:02:53.874Z,33.82
2024-01-05T06:03:23.913Z,33.87
2024-01-05T06:03:53.976Z,33.83
2024-01-05T06:04:24.025Z,33.84
2024-01-05T06:04:54.035Z,33.77
2024-01-05T06:05:24.190Z,33.80
2024-01-05T06:05:54.152Z,33.81
2024-01-05T06:06:24.236Z,33.77
2024-01-05T06:06:54.297Z,33.78
2024-01-05T06:07:24.288Z,33.75
2024-01-05T06:07:54.403Z,33.75
2024-01-05T06:08:24.518Z,33.72
2024-01-05T06:08:54.570Z,33.77
2024-01-05T06:09:24.623Z,33.72
2024-01-05T06:09:54.633Z,33.71
2024-01-05T06:10:24.644Z,33.76
2024-01-05T06:10:54.640Z,33.74
2024-01-05T06:11:54.843Z,33.65
2024-01-05T06:12:24.761Z,33.70
2024-01-05T06:12:54.746Z,33.70
2024-01-05T06:13:24.862Z,33.68
2024-01-05T06:13:54.855Z,33.67
2024-01-05T06:14:24.865Z,33.67
2024-01-05T06:14:54.916Z,33.64
2024-01-05T06:15:24.989Z,33.67
2024-01-05T06:15:54.987Z,33.65
2024-01-05T06:16:25.101Z,33.59
2024-01-05T06:16:55.107Z,33.64
2024-01-05T06:17:25.144Z,33.62
2024-01-05T06:17:55.266Z,33.64
2024-01-05T06:18:25.274Z,33.58
2024-01-05T06:18:55.368Z,33.63
2024-01-05T06:19:25.434Z,33.61
2024-01-05T06:19:55.423Z,33.58
2024-01-05T06:20:25.409Z,33.65
2024-01-05T06:20:55.583Z,33.53
2024-01-05T06:21:25.624Z,33.61
2024-01-05T06:21:55.606Z,33.66
2024-01-05T06:22:25.760Z,33.60
2024-01-05T06:22:55.838Z,33.58
2024-01-05T06:23:25.755Z,33.61
2024-01-05T06:23:55.949Z,33.65
2024-01-05T06:24:26.062Z,33.63
2024-01-05T06:24:56.063Z,33.57
2024-01-05T06:25:26.183Z,33.58
2024-01-05T06:25:56.165Z,33.63
2024-01-05T06:26:26.289Z,33.57
2024-01-05T06:26:56.334Z,33.58
2024-01-05T06:27:33.113Z,33.63
2024-01-05T06:27:56.383Z,33.57
2024-01-05T06:28:28.102Z,33.59
2024-01-05T06:28:56.469Z,33.57
2024-01-05T06:29:26.454Z,33.58
2024-01-05T06:30:26.705Z,33.51
2024-01-05T06:30:56.807Z,33.59
2024-01-05T06:31:26.668Z,33.51
2024-01-05T06:31:56.658Z,33.60
2024-01-05T06:32:26.822Z,33.59
2024-01-05T06:32:56.944Z,33.54
2024-01-05T06:33:26.963Z,33.56
2024-01-05T06:33:59.421Z,33.53
2024-01-05T06:34:26.989Z,33.54
2024-01-05T06:34:57.127Z,33.56
2024-01-05T06:35:27.111Z,33.53
2024-01-05T06:35:57.116Z,33.51
2024-01-05T06:36:27.162Z,33.50
2024-01-05T06:36:57.151Z,33.53
2024-01-05T06:37:27.146Z,33.52
2024-01-05T06:37:57.263Z,33.51
2024-01-05T06:38:27.256Z,33.48
2024-01-05T06:39:27.371Z,33.56
2024-01-05T06:39:57.392Z,33.51
2024-01-05T06:40:27.490Z,33.50
2024-01-05T06:40:57.610Z,33.50
2024-01-05T06:41:27.718Z,33.52
2024-01-05T06:41:57.778Z,33.51
2024-01-05T06:42:28.038Z,33.46
2024-01-05T06:42:57.991Z,33.47
2024-01-05T06:43:27.874Z,33.45
2024-01-05T06:43:57.959Z,33.46
2024-01-05T06:44:28.034Z,33.46
2024-01-05T06:44:58.162Z,33.44
2024-01-05T06:45:28.169Z,33.49
2024-01-05T06:45:58.160Z,33.47
2024-01-05T06:46:28.236Z,33.40
2024-01-05T06:46:58.327Z,33.43
2024-01-05T06:47:28.488Z,33.46
2024-01-05T06:47:58.701Z,33.48
2024-01-05T06:48:28.668Z,33.43
2024-01-05T06:48:58.932Z,33.43
2024-01-05T06:49:28.758Z,33.48
2024-01-05T06:49:58.830Z,33.45
2024-01-05T06:50:28.888Z,33.46
2024-01-05T06:50:58.962Z,33.43